sensor_id;sensor_type;location;lat;lon;timestamp;P1;durP1;ratioP1;P2;durP2;ratioP2
12120;SDS011;6124;59.460;17.908;2023-05-10T00:02:23;10.73;;;5.77;;
12120;SDS011;6124;59.460;17.908;2023-05-10T00:04:51;9.87;;;5.63;;
12120;SDS011;6124;59.460;17.908;2023-05-10T00:07:19;12.20;;;6.43;;
12120;SDS011;6124;59.460;17.908;2023-05-10T00:09:46;10.70;;;5.90;;
12120;SDS011;6124;59.460;17.908;2023-05-10T00:12:13;10.57;;;6.00;;
12120;SDS011;6124;59.460;17.908;2023-05-10T00:14:40;9.30;;;6.07;;
12120;SDS011;6124;59.460;17.908;2023-05-10T00:17:08;8.73;;;5.47;;
12120;SDS011;6124;59.460;17.908;2023-05-10T00:19:37;9.87;;;6.03;;
12120;SDS011;6124;59.460;17.908;2023-05-10T00:22:04;8.60;;;5.60;;
12120;SDS011;6124;59.460;17.908;2023-05-10T00:24:31;10.13;;;5.63;;
12120;SDS011;6124;59.460;17.908;2023-05-10T00:26:58;9.70;;;5.60;;
12120;SDS011;6124;59.460;17.908;2023-05-10T00:29:26;8.00;;;5.90;;
12120;SDS011;6124;59.460;17.908;2023-05-10T00:31:54;8.27;;;5.40;;
12120;SDS011;6124;59.460;17.908;2023-05-10T00:34:21;8.03;;;5.40;;
12120;SDS011;6124;59.460;17.908;2023-05-10T00:36:51;8.10;;;5.10;;
12120;SDS011;6124;59.460;17.908;2023-05-10T00:39:18;9.30;;;5.93;;
12120;SDS011;6124;59.460;17.908;2023-05-10T00:41:45;8.30;;;5.50;;
12120;SDS011;6124;59.460;17.908;2023-05-10T00:44:13;11.30;;;5.40;;
12120;SDS011;6124;59.460;17.908;2023-05-10T00:46:40;9.90;;;5.57;;
12120;SDS011;6124;59.460;17.908;2023-05-10T00:49:08;9.23;;;5.70;;
12120;SDS011;6124;59.460;17.908;2023-05-10T00:51:35;10.50;;;5.90;;
12120;SDS011;6124;59.460;17.908;2023-05-10T00:54:04;9.90;;;5.67;;
12120;SDS011;6124;59.460;17.908;2023-05-10T00:56:31;10.03;;;5.60;;
12120;SDS011;6124;59.460;17.908;2023-05-10T00:58:59;11.90;;;6.70;;
12120;SDS011;6124;59.460;17.908;2023-05-10T01:01:27;9.63;;;6.20;;
12120;SDS011;6124;59.460;17.908;2023-05-10T01:03:54;9.23;;;5.87;;
12120;SDS011;6124;59.460;17.908;2023-05-10T01:06:22;8.93;;;6.10;;
12120;SDS011;6124;59.460;17.908;2023-05-10T01:08:49;8.07;;;5.77;;
12120;SDS011;6124;59.460;17.908;2023-05-10T01:11:18;10.07;;;6.23;;
12120;SDS011;6124;59.460;17.908;2023-05-10T01:13:46;8.87;;;6.00;;
12120;SDS011;6124;59.460;17.908;2023-05-10T01:16:16;9.10;;;5.90;;
12120;SDS011;6124;59.460;17.908;2023-05-10T01:18:43;8.63;;;5.73;;
12120;SDS011;6124;59.460;17.908;2023-05-10T01:21:15;8.57;;;5.97;;
12120;SDS011;6124;59.460;17.908;2023-05-10T01:23:45;8.47;;;5.70;;
12120;SDS011;6124;59.460;17.908;2023-05-10T01:26:22;8.53;;;5.73;;
12120;SDS011;6124;59.460;17.908;2023-05-10T01:31:40;7.20;;;5.50;;
12120;SDS011;6124;59.460;17.908;2023-05-10T01:34:12;8.20;;;5.63;;
12120;SDS011;6124;59.460;17.908;2023-05-10T01:36:43;9.57;;;5.83;;
12120;SDS011;6124;59.460;17.908;2023-05-10T01:39:15;8.33;;;5.70;;
12120;SDS011;6124;59.460;17.908;2023-05-10T01:41:50;9.00;;;5.77;;
12120;SDS011;6124;59.460;17.908;2023-05-10T01:44:20;7.93;;;5.97;;
12120;SDS011;6124;59.460;17.908;2023-05-10T01:46:52;9.27;;;6.60;;
12120;SDS011;6124;59.460;17.908;2023-05-10T01:49:23;9.43;;;6.07;;
12120;SDS011;6124;59.460;17.908;2023-05-10T01:51:51;9.57;;;5.80;;
12120;SDS011;6124;59.460;17.908;2023-05-10T01:54:21;9.60;;;5.70;;
12120;SDS011;6124;59.460;17.908;2023-05-10T01:56:50;8.90;;;5.83;;
12120;SDS011;6124;59.460;17.908;2023-05-10T01:59:19;8.60;;;6.17;;
12120;SDS011;6124;59.460;17.908;2023-05-10T02:01:47;11.37;;;5.97;;
12120;SDS011;6124;59.460;17.908;2023-05-10T02:04:15;9.40;;;5.37;;
12120;SDS011;6124;59.460;17.908;2023-05-10T02:06:45;9.83;;;5.90;;
12120;SDS011;6124;59.460;17.908;2023-05-10T02:09:13;8.00;;;5.93;;
12120;SDS011;6124;59.460;17.908;2023-05-10T02:11:41;8.10;;;5.90;;
12120;SDS011;6124;59.460;17.908;2023-05-10T02:14:10;9.40;;;5.97;;
12120;SDS011;6124;59.460;17.908;2023-05-10T02:16:38;8.57;;;5.90;;
12120;SDS011;6124;59.460;17.908;2023-05-10T02:19:06;9.33;;;5.67;;
12120;SDS011;6124;59.460;17.908;2023-05-10T02:21:34;6.70;;;5.50;;
12120;SDS011;6124;59.460;17.908;2023-05-10T02:24:04;10.23;;;5.83;;
12120;SDS011;6124;59.460;17.908;2023-05-10T02:26:32;9.43;;;6.17;;
12120;SDS011;6124;59.460;17.908;2023-05-10T02:29:00;8.77;;;5.73;;
12120;SDS011;6124;59.460;17.908;2023-05-10T02:31:29;7.77;;;5.83;;
12120;SDS011;6124;59.460;17.908;2023-05-10T02:33:57;9.03;;;5.63;;
12120;SDS011;6124;59.460;17.908;2023-05-10T02:36:25;8.53;;;5.63;;
12120;SDS011;6124;59.460;17.908;2023-05-10T02:38:53;10.20;;;5.57;;
12120;SDS011;6124;59.460;17.908;2023-05-10T02:41:22;9.87;;;5.77;;
12120;SDS011;6124;59.460;17.908;2023-05-10T02:43:51;8.63;;;5.53;;
12120;SDS011;6124;59.460;17.908;2023-05-10T02:46:19;8.17;;;5.47;;
12120;SDS011;6124;59.460;17.908;2023-05-10T02:48:46;7.63;;;5.10;;
12120;SDS011;6124;59.460;17.908;2023-05-10T02:51:13;11.23;;;6.10;;
12120;SDS011;6124;59.460;17.908;2023-05-10T02:53:43;8.17;;;5.40;;
12120;SDS011;6124;59.460;17.908;2023-05-10T02:56:12;10.07;;;5.67;;
12120;SDS011;6124;59.460;17.908;2023-05-10T02:58:43;8.33;;;5.23;;
12120;SDS011;6124;59.460;17.908;2023-05-10T03:01:11;10.40;;;5.83;;
12120;SDS011;6124;59.460;17.908;2023-05-10T03:03:38;7.93;;;5.70;;
12120;SDS011;6124;59.460;17.908;2023-05-10T03:06:05;8.43;;;5.60;;
12120;SDS011;6124;59.460;17.908;2023-05-10T03:08:33;11.87;;;6.10;;
12120;SDS011;6124;59.460;17.908;2023-05-10T03:11:05;7.50;;;5.43;;
12120;SDS011;6124;59.460;17.908;2023-05-10T03:13:35;8.93;;;5.13;;
12120;SDS011;6124;59.460;17.908;2023-05-10T03:16:08;7.63;;;5.47;;
12120;SDS011;6124;59.460;17.908;2023-05-10T03:18:37;9.13;;;5.53;;
12120;SDS011;6124;59.460;17.908;2023-05-10T03:21:08;9.13;;;5.83;;
12120;SDS011;6124;59.460;17.908;2023-05-10T03:23:40;8.33;;;4.90;;
12120;SDS011;6124;59.460;17.908;2023-05-10T03:26:08;7.13;;;5.80;;
12120;SDS011;6124;59.460;17.908;2023-05-10T03:28:35;9.03;;;5.67;;
12120;SDS011;6124;59.460;17.908;2023-05-10T03:31:03;9.10;;;5.73;;
12120;SDS011;6124;59.460;17.908;2023-05-10T03:33:32;7.27;;;5.33;;
12120;SDS011;6124;59.460;17.908;2023-05-10T03:36:00;9.17;;;6.37;;
12120;SDS011;6124;59.460;17.908;2023-05-10T03:38:27;10.47;;;5.93;;
12120;SDS011;6124;59.460;17.908;2023-05-10T03:40:55;10.53;;;5.77;;
12120;SDS011;6124;59.460;17.908;2023-05-10T03:43:22;8.67;;;5.37;;
12120;SDS011;6124;59.460;17.908;2023-05-10T03:45:49;5.83;;;5.10;;
12120;SDS011;6124;59.460;17.908;2023-05-10T03:48:16;8.67;;;5.50;;
12120;SDS011;6124;59.460;17.908;2023-05-10T03:50:45;7.90;;;5.10;;
12120;SDS011;6124;59.460;17.908;2023-05-10T03:53:14;10.80;;;5.80;;
12120;SDS011;6124;59.460;17.908;2023-05-10T03:55:41;8.60;;;5.50;;
12120;SDS011;6124;59.460;17.908;2023-05-10T03:58:10;7.10;;;5.50;;
12120;SDS011;6124;59.460;17.908;2023-05-10T04:00:37;8.90;;;5.33;;
12120;SDS011;6124;59.460;17.908;2023-05-10T04:03:08;8.73;;;5.47;;
12120;SDS011;6124;59.460;17.908;2023-05-10T04:05:36;6.47;;;4.90;;
12120;SDS011;6124;59.460;17.908;2023-05-10T04:08:04;8.70;;;5.33;;
12120;SDS011;6124;59.460;17.908;2023-05-10T04:10:32;11.23;;;5.67;;
12120;SDS011;6124;59.460;17.908;2023-05-10T04:12:59;7.87;;;5.90;;
12120;SDS011;6124;59.460;17.908;2023-05-10T04:15:27;8.17;;;5.33;;
12120;SDS011;6124;59.460;17.908;2023-05-10T04:17:54;11.03;;;5.77;;
12120;SDS011;6124;59.460;17.908;2023-05-10T04:20:21;7.63;;;5.47;;
12120;SDS011;6124;59.460;17.908;2023-05-10T04:22:49;8.57;;;5.37;;
12120;SDS011;6124;59.460;17.908;2023-05-10T04:25:17;6.93;;;4.63;;
12120;SDS011;6124;59.460;17.908;2023-05-10T04:27:45;8.77;;;5.27;;
12120;SDS011;6124;59.460;17.908;2023-05-10T04:30:12;7.13;;;5.33;;
12120;SDS011;6124;59.460;17.908;2023-05-10T04:32:39;8.27;;;5.67;;
12120;SDS011;6124;59.460;17.908;2023-05-10T04:35:07;8.50;;;4.93;;
12120;SDS011;6124;59.460;17.908;2023-05-10T04:37:35;8.13;;;4.80;;
12120;SDS011;6124;59.460;17.908;2023-05-10T04:40:03;8.83;;;5.27;;
12120;SDS011;6124;59.460;17.908;2023-05-10T04:42:31;9.57;;;5.43;;
12120;SDS011;6124;59.460;17.908;2023-05-10T04:44:59;7.07;;;4.93;;
12120;SDS011;6124;59.460;17.908;2023-05-10T04:47:26;6.67;;;4.70;;
12120;SDS011;6124;59.460;17.908;2023-05-10T04:49:53;10.47;;;4.80;;
12120;SDS011;6124;59.460;17.908;2023-05-10T04:52:21;7.97;;;4.90;;
12120;SDS011;6124;59.460;17.908;2023-05-10T04:54:48;6.30;;;4.40;;
12120;SDS011;6124;59.460;17.908;2023-05-10T04:57:16;6.93;;;4.80;;
12120;SDS011;6124;59.460;17.908;2023-05-10T04:59:44;7.70;;;4.47;;
12120;SDS011;6124;59.460;17.908;2023-05-10T05:02:12;6.93;;;5.00;;
12120;SDS011;6124;59.460;17.908;2023-05-10T05:04:39;9.80;;;4.90;;
12120;SDS011;6124;59.460;17.908;2023-05-10T05:07:06;6.97;;;4.60;;
12120;SDS011;6124;59.460;17.908;2023-05-10T05:09:33;6.23;;;4.27;;
12120;SDS011;6124;59.460;17.908;2023-05-10T05:12:01;8.67;;;4.67;;
12120;SDS011;6124;59.460;17.908;2023-05-10T05:14:28;7.17;;;4.47;;
12120;SDS011;6124;59.460;17.908;2023-05-10T05:16:57;7.73;;;4.90;;
12120;SDS011;6124;59.460;17.908;2023-05-10T05:19:24;8.00;;;4.13;;
12120;SDS011;6124;59.460;17.908;2023-05-10T05:21:52;8.37;;;4.73;;
12120;SDS011;6124;59.460;17.908;2023-05-10T05:24:19;11.90;;;4.60;;
12120;SDS011;6124;59.460;17.908;2023-05-10T05:26:47;6.80;;;4.80;;
12120;SDS011;6124;59.460;17.908;2023-05-10T05:29:14;6.60;;;4.37;;
12120;SDS011;6124;59.460;17.908;2023-05-10T05:31:41;6.07;;;4.40;;
12120;SDS011;6124;59.460;17.908;2023-05-10T05:34:10;6.10;;;4.30;;
12120;SDS011;6124;59.460;17.908;2023-05-10T05:36:37;6.20;;;4.63;;
12120;SDS011;6124;59.460;17.908;2023-05-10T05:39:05;8.07;;;4.60;;
12120;SDS011;6124;59.460;17.908;2023-05-10T05:41:32;8.57;;;4.27;;
12120;SDS011;6124;59.460;17.908;2023-05-10T05:43:59;8.43;;;4.70;;
12120;SDS011;6124;59.460;17.908;2023-05-10T05:46:27;6.30;;;4.80;;
12120;SDS011;6124;59.460;17.908;2023-05-10T05:48:54;8.17;;;4.60;;
12120;SDS011;6124;59.460;17.908;2023-05-10T05:51:23;7.37;;;4.37;;
12120;SDS011;6124;59.460;17.908;2023-05-10T05:53:50;6.63;;;3.93;;
12120;SDS011;6124;59.460;17.908;2023-05-10T05:56:18;6.40;;;4.20;;
12120;SDS011;6124;59.460;17.908;2023-05-10T05:58:49;6.90;;;4.43;;
12120;SDS011;6124;59.460;17.908;2023-05-10T06:01:16;7.33;;;4.80;;
12120;SDS011;6124;59.460;17.908;2023-05-10T06:03:44;8.07;;;4.20;;
12120;SDS011;6124;59.460;17.908;2023-05-10T06:06:11;6.83;;;3.90;;
12120;SDS011;6124;59.460;17.908;2023-05-10T06:08:40;6.67;;;4.10;;
12120;SDS011;6124;59.460;17.908;2023-05-10T06:11:07;7.33;;;3.90;;
12120;SDS011;6124;59.460;17.908;2023-05-10T06:13:34;5.67;;;4.40;;
12120;SDS011;6124;59.460;17.908;2023-05-10T06:16:02;9.23;;;4.30;;
12120;SDS011;6124;59.460;17.908;2023-05-10T06:18:29;7.00;;;4.10;;
12120;SDS011;6124;59.460;17.908;2023-05-10T06:20:57;8.10;;;4.30;;
12120;SDS011;6124;59.460;17.908;2023-05-10T06:23:24;5.63;;;3.90;;
12120;SDS011;6124;59.460;17.908;2023-05-10T06:25:53;7.43;;;4.10;;
12120;SDS011;6124;59.460;17.908;2023-05-10T06:28:20;7.03;;;4.27;;
12120;SDS011;6124;59.460;17.908;2023-05-10T06:30:47;5.50;;;4.23;;
12120;SDS011;6124;59.460;17.908;2023-05-10T06:33:14;4.80;;;4.07;;
12120;SDS011;6124;59.460;17.908;2023-05-10T06:35:42;6.30;;;4.10;;
12120;SDS011;6124;59.460;17.908;2023-05-10T06:38:09;6.73;;;4.10;;
12120;SDS011;6124;59.460;17.908;2023-05-10T06:40:36;6.90;;;3.93;;
12120;SDS011;6124;59.460;17.908;2023-05-10T06:43:05;5.50;;;3.77;;
12120;SDS011;6124;59.460;17.908;2023-05-10T06:45:32;6.13;;;3.90;;
12120;SDS011;6124;59.460;17.908;2023-05-10T06:48:00;5.73;;;4.17;;
12120;SDS011;6124;59.460;17.908;2023-05-10T06:50:27;7.67;;;4.00;;
12120;SDS011;6124;59.460;17.908;2023-05-10T06:52:55;5.73;;;3.80;;
12120;SDS011;6124;59.460;17.908;2023-05-10T06:55:22;6.83;;;4.03;;
12120;SDS011;6124;59.460;17.908;2023-05-10T06:57:49;6.63;;;4.07;;
12120;SDS011;6124;59.460;17.908;2023-05-10T07:00:19;6.27;;;4.10;;
12120;SDS011;6124;59.460;17.908;2023-05-10T07:02:46;6.73;;;3.90;;
12120;SDS011;6124;59.460;17.908;2023-05-10T07:05:14;6.03;;;3.97;;
12120;SDS011;6124;59.460;17.908;2023-05-10T07:07:41;6.37;;;3.53;;
12120;SDS011;6124;59.460;17.908;2023-05-10T07:10:09;6.93;;;3.83;;
12120;SDS011;6124;59.460;17.908;2023-05-10T07:12:36;7.40;;;4.10;;
12120;SDS011;6124;59.460;17.908;2023-05-10T07:15:04;6.90;;;4.00;;
12120;SDS011;6124;59.460;17.908;2023-05-10T07:17:33;7.83;;;4.23;;
12120;SDS011;6124;59.460;17.908;2023-05-10T07:20:00;6.20;;;3.90;;
12120;SDS011;6124;59.460;17.908;2023-05-10T07:22:28;5.60;;;4.07;;
12120;SDS011;6124;59.460;17.908;2023-05-10T07:24:55;7.77;;;3.80;;
12120;SDS011;6124;59.460;17.908;2023-05-10T07:27:23;6.70;;;3.60;;
12120;SDS011;6124;59.460;17.908;2023-05-10T07:29:50;5.23;;;3.77;;
12120;SDS011;6124;59.460;17.908;2023-05-10T07:32:18;7.50;;;3.70;;
12120;SDS011;6124;59.460;17.908;2023-05-10T07:34:46;5.93;;;3.60;;
12120;SDS011;6124;59.460;17.908;2023-05-10T07:37:14;4.90;;;3.53;;
12120;SDS011;6124;59.460;17.908;2023-05-10T07:39:41;7.73;;;4.13;;
12120;SDS011;6124;59.460;17.908;2023-05-10T07:42:08;6.73;;;3.87;;
12120;SDS011;6124;59.460;17.908;2023-05-10T07:44:36;5.60;;;3.70;;
12120;SDS011;6124;59.460;17.908;2023-05-10T07:47:03;7.70;;;3.70;;
12120;SDS011;6124;59.460;17.908;2023-05-10T07:49:31;7.47;;;3.73;;
12120;SDS011;6124;59.460;17.908;2023-05-10T07:52:00;6.60;;;3.60;;
12120;SDS011;6124;59.460;17.908;2023-05-10T07:54:28;4.97;;;3.70;;
12120;SDS011;6124;59.460;17.908;2023-05-10T07:56:55;6.63;;;4.07;;
12120;SDS011;6124;59.460;17.908;2023-05-10T07:59:23;9.37;;;3.57;;
12120;SDS011;6124;59.460;17.908;2023-05-10T08:01:50;7.17;;;3.47;;
12120;SDS011;6124;59.460;17.908;2023-05-10T08:04:18;5.33;;;3.60;;
12120;SDS011;6124;59.460;17.908;2023-05-10T08:06:46;4.47;;;3.40;;
12120;SDS011;6124;59.460;17.908;2023-05-10T08:09:15;7.57;;;4.03;;
12120;SDS011;6124;59.460;17.908;2023-05-10T08:11:43;5.23;;;3.73;;
12120;SDS011;6124;59.460;17.908;2023-05-10T08:14:10;6.67;;;4.10;;
12120;SDS011;6124;59.460;17.908;2023-05-10T08:16:38;3.90;;;3.50;;
12120;SDS011;6124;59.460;17.908;2023-05-10T08:19:05;7.33;;;3.90;;
12120;SDS011;6124;59.460;17.908;2023-05-10T08:21:33;5.60;;;3.67;;
12120;SDS011;6124;59.460;17.908;2023-05-10T08:24:01;6.43;;;3.83;;
12120;SDS011;6124;59.460;17.908;2023-05-10T08:26:30;4.60;;;3.87;;
12120;SDS011;6124;59.460;17.908;2023-05-10T08:28:58;5.77;;;3.90;;
12120;SDS011;6124;59.460;17.908;2023-05-10T08:31:25;5.80;;;4.13;;
12120;SDS011;6124;59.460;17.908;2023-05-10T08:33:59;4.80;;;3.87;;
12120;SDS011;6124;59.460;17.908;2023-05-10T08:36:42;7.03;;;3.60;;
12120;SDS011;6124;59.460;17.908;2023-05-10T08:39:09;8.30;;;3.90;;
12120;SDS011;6124;59.460;17.908;2023-05-10T08:41:39;5.77;;;3.70;;
12120;SDS011;6124;59.460;17.908;2023-05-10T08:44:07;5.70;;;3.87;;
12120;SDS011;6124;59.460;17.908;2023-05-10T08:46:35;5.40;;;3.90;;
12120;SDS011;6124;59.460;17.908;2023-05-10T08:49:05;6.77;;;3.73;;
12120;SDS011;6124;59.460;17.908;2023-05-10T08:51:35;8.00;;;3.53;;
12120;SDS011;6124;59.460;17.908;2023-05-10T08:54:03;6.00;;;4.33;;
12120;SDS011;6124;59.460;17.908;2023-05-10T08:56:31;4.30;;;3.90;;
12120;SDS011;6124;59.460;17.908;2023-05-10T08:59:01;3.87;;;3.43;;
12120;SDS011;6124;59.460;17.908;2023-05-10T09:01:28;5.90;;;4.27;;
12120;SDS011;6124;59.460;17.908;2023-05-10T09:03:58;5.83;;;3.47;;
12120;SDS011;6124;59.460;17.908;2023-05-10T09:06:25;5.83;;;3.83;;
12120;SDS011;6124;59.460;17.908;2023-05-10T09:08:53;6.37;;;3.90;;
12120;SDS011;6124;59.460;17.908;2023-05-10T09:11:21;6.73;;;4.20;;
12120;SDS011;6124;59.460;17.908;2023-05-10T09:13:49;7.27;;;4.00;;
12120;SDS011;6124;59.460;17.908;2023-05-10T09:16:19;5.50;;;3.83;;
12120;SDS011;6124;59.460;17.908;2023-05-10T09:18:47;5.33;;;3.77;;
12120;SDS011;6124;59.460;17.908;2023-05-10T09:21:15;7.50;;;3.63;;
12120;SDS011;6124;59.460;17.908;2023-05-10T09:23:43;6.17;;;3.80;;
12120;SDS011;6124;59.460;17.908;2023-05-10T09:26:12;7.27;;;3.60;;
12120;SDS011;6124;59.460;17.908;2023-05-10T09:28:49;10.37;;;3.83;;
12120;SDS011;6124;59.460;17.908;2023-05-10T09:31:17;6.67;;;3.77;;
12120;SDS011;6124;59.460;17.908;2023-05-10T09:33:47;6.13;;;3.80;;
12120;SDS011;6124;59.460;17.908;2023-05-10T09:36:15;5.50;;;3.80;;
12120;SDS011;6124;59.460;17.908;2023-05-10T09:38:46;4.67;;;3.90;;
12120;SDS011;6124;59.460;17.908;2023-05-10T09:41:18;4.60;;;3.67;;
12120;SDS011;6124;59.460;17.908;2023-05-10T09:43:46;6.77;;;3.53;;
12120;SDS011;6124;59.460;17.908;2023-05-10T09:46:14;5.63;;;3.77;;
12120;SDS011;6124;59.460;17.908;2023-05-10T09:48:43;5.87;;;3.97;;
12120;SDS011;6124;59.460;17.908;2023-05-10T09:51:19;6.87;;;4.00;;
12120;SDS011;6124;59.460;17.908;2023-05-10T09:53:47;5.43;;;3.70;;
12120;SDS011;6124;59.460;17.908;2023-05-10T09:59:02;6.80;;;3.23;;
12120;SDS011;6124;59.460;17.908;2023-05-10T10:01:29;4.37;;;3.03;;
12120;SDS011;6124;59.460;17.908;2023-05-10T10:03:57;6.37;;;3.73;;
12120;SDS011;6124;59.460;17.908;2023-05-10T10:06:26;6.07;;;4.00;;
12120;SDS011;6124;59.460;17.908;2023-05-10T10:08:54;5.70;;;3.50;;
12120;SDS011;6124;59.460;17.908;2023-05-10T10:11:22;6.30;;;3.67;;
12120;SDS011;6124;59.460;17.908;2023-05-10T10:13:50;5.53;;;3.43;;
12120;SDS011;6124;59.460;17.908;2023-05-10T10:16:18;4.23;;;3.50;;
12120;SDS011;6124;59.460;17.908;2023-05-10T10:18:47;6.57;;;3.63;;
12120;SDS011;6124;59.460;17.908;2023-05-10T10:21:14;4.43;;;3.60;;
12120;SDS011;6124;59.460;17.908;2023-05-10T10:23:43;7.50;;;3.50;;
12120;SDS011;6124;59.460;17.908;2023-05-10T10:26:11;27.00;;;4.73;;
12120;SDS011;6124;59.460;17.908;2023-05-10T10:28:39;6.93;;;3.60;;
12120;SDS011;6124;59.460;17.908;2023-05-10T10:31:13;5.83;;;3.60;;
12120;SDS011;6124;59.460;17.908;2023-05-10T10:33:50;6.20;;;3.73;;
12120;SDS011;6124;59.460;17.908;2023-05-10T10:36:19;4.53;;;3.53;;
12120;SDS011;6124;59.460;17.908;2023-05-10T10:38:58;5.73;;;3.47;;
12120;SDS011;6124;59.460;17.908;2023-05-10T10:41:27;7.33;;;3.90;;
12120;SDS011;6124;59.460;17.908;2023-05-10T10:46:53;4.90;;;3.50;;
12120;SDS011;6124;59.460;17.908;2023-05-10T10:49:25;5.10;;;3.47;;
12120;SDS011;6124;59.460;17.908;2023-05-10T10:54:41;4.20;;;3.23;;
12120;SDS011;6124;59.460;17.908;2023-05-10T10:57:11;5.27;;;3.20;;
12120;SDS011;6124;59.460;17.908;2023-05-10T10:59:41;5.87;;;3.60;;
12120;SDS011;6124;59.460;17.908;2023-05-10T11:02:09;5.83;;;3.60;;
12120;SDS011;6124;59.460;17.908;2023-05-10T11:04:43;4.90;;;3.43;;
12120;SDS011;6124;59.460;17.908;2023-05-10T11:07:17;5.63;;;3.80;;
12120;SDS011;6124;59.460;17.908;2023-05-10T11:09:47;8.63;;;3.53;;
12120;SDS011;6124;59.460;17.908;2023-05-10T11:12:15;23.13;;;5.13;;
12120;SDS011;6124;59.460;17.908;2023-05-10T11:14:42;5.17;;;3.33;;
12120;SDS011;6124;59.460;17.908;2023-05-10T11:17:22;6.13;;;3.60;;
12120;SDS011;6124;59.460;17.908;2023-05-10T11:20:03;3.87;;;3.40;;
12120;SDS011;6124;59.460;17.908;2023-05-10T11:25:17;3.77;;;3.47;;
12120;SDS011;6124;59.460;17.908;2023-05-10T11:27:45;7.67;;;3.70;;
12120;SDS011;6124;59.460;17.908;2023-05-10T11:30:12;5.90;;;3.40;;
12120;SDS011;6124;59.460;17.908;2023-05-10T11:32:40;3.80;;;3.30;;
12120;SDS011;6124;59.460;17.908;2023-05-10T11:35:08;5.70;;;3.40;;
12120;SDS011;6124;59.460;17.908;2023-05-10T11:37:35;6.57;;;3.17;;
12120;SDS011;6124;59.460;17.908;2023-05-10T11:40:07;5.50;;;3.60;;
12120;SDS011;6124;59.460;17.908;2023-05-10T11:42:37;4.77;;;3.43;;
12120;SDS011;6124;59.460;17.908;2023-05-10T11:45:05;6.60;;;3.40;;
12120;SDS011;6124;59.460;17.908;2023-05-10T11:47:32;8.80;;;3.97;;
12120;SDS011;6124;59.460;17.908;2023-05-10T11:50:00;6.00;;;3.30;;
12120;SDS011;6124;59.460;17.908;2023-05-10T11:52:28;5.57;;;3.20;;
12120;SDS011;6124;59.460;17.908;2023-05-10T11:54:55;6.07;;;3.20;;
12120;SDS011;6124;59.460;17.908;2023-05-10T11:57:25;11.10;;;3.80;;
12120;SDS011;6124;59.460;17.908;2023-05-10T11:59:54;4.00;;;3.10;;
12120;SDS011;6124;59.460;17.908;2023-05-10T12:02:23;5.00;;;3.30;;
12120;SDS011;6124;59.460;17.908;2023-05-10T12:04:50;5.23;;;3.40;;
12120;SDS011;6124;59.460;17.908;2023-05-10T12:07:18;6.47;;;3.57;;
12120;SDS011;6124;59.460;17.908;2023-05-10T12:12:27;5.83;;;3.67;;
12120;SDS011;6124;59.460;17.908;2023-05-10T12:15:03;7.50;;;3.60;;
12120;SDS011;6124;59.460;17.908;2023-05-10T12:17:31;7.57;;;3.53;;
12120;SDS011;6124;59.460;17.908;2023-05-10T12:20:12;4.70;;;3.50;;
12120;SDS011;6124;59.460;17.908;2023-05-10T12:22:39;6.20;;;3.57;;
12120;SDS011;6124;59.460;17.908;2023-05-10T12:25:08;5.40;;;3.30;;
12120;SDS011;6124;59.460;17.908;2023-05-10T12:27:35;5.53;;;3.20;;
12120;SDS011;6124;59.460;17.908;2023-05-10T12:30:05;6.40;;;3.17;;
12120;SDS011;6124;59.460;17.908;2023-05-10T12:32:38;6.10;;;3.20;;
12120;SDS011;6124;59.460;17.908;2023-05-10T12:35:06;5.27;;;3.10;;
12120;SDS011;6124;59.460;17.908;2023-05-10T12:37:34;5.13;;;3.20;;
12120;SDS011;6124;59.460;17.908;2023-05-10T12:40:05;4.70;;;3.13;;
12120;SDS011;6124;59.460;17.908;2023-05-10T12:42:34;3.80;;;3.17;;
12120;SDS011;6124;59.460;17.908;2023-05-10T12:45:02;6.13;;;3.13;;
12120;SDS011;6124;59.460;17.908;2023-05-10T12:47:31;7.60;;;3.60;;
12120;SDS011;6124;59.460;17.908;2023-05-10T12:49:59;5.27;;;3.13;;
12120;SDS011;6124;59.460;17.908;2023-05-10T12:52:27;5.07;;;3.03;;
12120;SDS011;6124;59.460;17.908;2023-05-10T12:54:55;4.20;;;3.10;;
12120;SDS011;6124;59.460;17.908;2023-05-10T12:57:22;5.30;;;3.00;;
12120;SDS011;6124;59.460;17.908;2023-05-10T12:59:49;3.80;;;3.00;;
12120;SDS011;6124;59.460;17.908;2023-05-10T13:02:17;4.70;;;3.13;;
12120;SDS011;6124;59.460;17.908;2023-05-10T13:04:47;6.17;;;3.20;;
12120;SDS011;6124;59.460;17.908;2023-05-10T13:07:15;4.50;;;3.00;;
12120;SDS011;6124;59.460;17.908;2023-05-10T13:09:42;3.77;;;3.03;;
12120;SDS011;6124;59.460;17.908;2023-05-10T13:12:09;5.80;;;3.10;;
12120;SDS011;6124;59.460;17.908;2023-05-10T13:14:36;3.40;;;3.10;;
12120;SDS011;6124;59.460;17.908;2023-05-10T13:17:05;6.60;;;3.27;;
12120;SDS011;6124;59.460;17.908;2023-05-10T13:19:33;3.73;;;2.93;;
12120;SDS011;6124;59.460;17.908;2023-05-10T13:22:02;4.17;;;3.07;;
12120;SDS011;6124;59.460;17.908;2023-05-10T13:24:29;6.40;;;3.40;;
12120;SDS011;6124;59.460;17.908;2023-05-10T13:26:57;5.57;;;3.10;;
12120;SDS011;6124;59.460;17.908;2023-05-10T13:29:25;5.37;;;3.13;;
12120;SDS011;6124;59.460;17.908;2023-05-10T13:31:52;6.10;;;3.23;;
12120;SDS011;6124;59.460;17.908;2023-05-10T13:34:19;4.30;;;3.10;;
12120;SDS011;6124;59.460;17.908;2023-05-10T13:36:47;5.60;;;3.20;;
12120;SDS011;6124;59.460;17.908;2023-05-10T13:39:16;5.97;;;2.83;;
12120;SDS011;6124;59.460;17.908;2023-05-10T13:41:43;8.27;;;3.40;;
12120;SDS011;6124;59.460;17.908;2023-05-10T13:44:11;5.03;;;2.90;;
12120;SDS011;6124;59.460;17.908;2023-05-10T13:46:39;3.57;;;3.27;;
12120;SDS011;6124;59.460;17.908;2023-05-10T13:49:08;4.20;;;3.00;;
12120;SDS011;6124;59.460;17.908;2023-05-10T13:51:35;6.13;;;2.77;;
12120;SDS011;6124;59.460;17.908;2023-05-10T13:54:03;3.50;;;2.60;;
12120;SDS011;6124;59.460;17.908;2023-05-10T13:56:31;4.63;;;2.73;;
12120;SDS011;6124;59.460;17.908;2023-05-10T13:58:59;6.03;;;2.87;;
12120;SDS011;6124;59.460;17.908;2023-05-10T14:01:27;5.73;;;2.90;;
12120;SDS011;6124;59.460;17.908;2023-05-10T14:03:54;4.87;;;3.00;;
12120;SDS011;6124;59.460;17.908;2023-05-10T14:06:21;5.00;;;3.10;;
12120;SDS011;6124;59.460;17.908;2023-05-10T14:08:49;6.40;;;2.80;;
12120;SDS011;6124;59.460;17.908;2023-05-10T14:11:16;5.83;;;3.20;;
12120;SDS011;6124;59.460;17.908;2023-05-10T14:13:45;5.63;;;2.90;;
12120;SDS011;6124;59.460;17.908;2023-05-10T14:16:12;5.57;;;2.73;;
12120;SDS011;6124;59.460;17.908;2023-05-10T14:18:39;3.37;;;2.60;;
12120;SDS011;6124;59.460;17.908;2023-05-10T14:21:07;7.53;;;3.07;;
12120;SDS011;6124;59.460;17.908;2023-05-10T14:23:34;5.50;;;2.83;;
12120;SDS011;6124;59.460;17.908;2023-05-10T14:26:02;7.07;;;2.60;;
12120;SDS011;6124;59.460;17.908;2023-05-10T14:28:29;5.13;;;2.87;;
12120;SDS011;6124;59.460;17.908;2023-05-10T14:30:58;4.27;;;2.90;;
12120;SDS011;6124;59.460;17.908;2023-05-10T14:33:25;5.20;;;3.03;;
12120;SDS011;6124;59.460;17.908;2023-05-10T14:35:53;5.37;;;3.17;;
12120;SDS011;6124;59.460;17.908;2023-05-10T14:38:21;4.73;;;2.70;;
12120;SDS011;6124;59.460;17.908;2023-05-10T14:40:49;4.27;;;2.67;;
12120;SDS011;6124;59.460;17.908;2023-05-10T14:43:16;5.53;;;2.93;;
12120;SDS011;6124;59.460;17.908;2023-05-10T14:45:43;5.37;;;3.10;;
12120;SDS011;6124;59.460;17.908;2023-05-10T14:48:13;4.60;;;2.87;;
12120;SDS011;6124;59.460;17.908;2023-05-10T14:50:42;4.50;;;2.80;;
12120;SDS011;6124;59.460;17.908;2023-05-10T14:53:09;4.90;;;3.20;;
12120;SDS011;6124;59.460;17.908;2023-05-10T14:55:37;5.13;;;2.73;;
12120;SDS011;6124;59.460;17.908;2023-05-10T14:58:04;4.67;;;2.53;;
12120;SDS011;6124;59.460;17.908;2023-05-10T15:00:32;3.70;;;2.63;;
12120;SDS011;6124;59.460;17.908;2023-05-10T15:02:59;7.47;;;3.27;;
12120;SDS011;6124;59.460;17.908;2023-05-10T15:05:28;7.53;;;2.90;;
12120;SDS011;6124;59.460;17.908;2023-05-10T15:07:55;3.90;;;2.90;;
12120;SDS011;6124;59.460;17.908;2023-05-10T15:10:23;4.53;;;2.70;;